createdAt,value
2022-07-28T00:00:15.279Z,76.52
2022-07-28T00:02:45.514Z,76.42
2022-07-28T00:05:15.745Z,76.67
2022-07-28T00:07:46.289Z,76.76
2022-07-28T00:10:16.771Z,76.66
2022-07-28T00:12:47.132Z,76.64
2022-07-28T00:15:17.285Z,76.63
2022-07-28T00:17:47.520Z,76.12
2022-07-28T00:20:17.546Z,76.09
2022-07-28T00:22:48.223Z,76.63
2022-07-28T00:25:18.642Z,77.12
2022-07-28T00:27:48.896Z,76.82
2022-07-28T00:30:19.364Z,76.84
2022-07-28T00:32:49.766Z,76.67
2022-07-28T00:35:30.253Z,76.85
2022-07-28T00:38:01.415Z,76.81
2022-07-28T00:40:50.177Z,76.64
2022-07-28T00:43:20.439Z,76.77
2022-07-28T00:45:50.618Z,76.68
2022-07-28T00:48:20.784Z,76.86
2022-07-28T00:50:51.127Z,76.45
2022-07-28T00:53:21.286Z,75.90
2022-07-28T00:56:06.352Z,76.52
2022-07-28T00:58:39.322Z,76.09
2022-07-28T01:01:11.254Z,75.68
2022-07-28T01:03:48.625Z,75.98
2022-07-28T01:06:50.384Z,75.75
2022-07-28T01:09:44.437Z,75.68
2022-07-28T01:12:29.287Z,76.16
2022-07-28T01:15:04.625Z,76.24
2022-07-28T01:17:52.709Z,76.29
2022-07-28T01:21:11.473Z,76.09
2022-07-28T01:24:10.159Z,75.93
2022-07-28T01:27:01.474Z,76.10
2022-07-28T01:29:49.921Z,75.94
2022-07-28T01:32:25.032Z,75.69
2022-07-28T01:35:04.184Z,75.76
2022-07-28T01:37:41.507Z,75.56
2022-07-28T01:40:14.645Z,75.27
2022-07-28T01:42:55.756Z,74.99
2022-07-28T01:45:27.507Z,74.84
2022-07-28T01:48:02.204Z,74.98
2022-07-28T01:50:33.522Z,75.06
2022-07-28T01:53:04.143Z,74.64
2022-07-28T01:55:36.318Z,74.34
2022-07-28T01:58:07.745Z,74.41
2022-07-28T02:00:38.774Z,74.33
2022-07-28T02:03:09.952Z,73.88
2022-07-28T02:05:42.903Z,74.08
2022-07-28T02:08:16.036Z,74.35
2022-07-28T02:11:09.190Z,74.16
2022-07-28T02:13:41.811Z,74.02
2022-07-28T02:16:15.693Z,74.03
2022-07-28T02:18:47.739Z,73.64
2022-07-28T02:21:19.336Z,73.25
2022-07-28T02:23:51.534Z,73.78
2022-07-28T02:26:29.770Z,73.91
2022-07-28T02:29:02.836Z,73.46
2022-07-28T02:31:59.627Z,73.32
2022-07-28T02:34:32.229Z,73.77
2022-07-28T02:37:06.041Z,73.59
2022-07-28T02:39:44.512Z,73.56
2022-07-28T02:42:34.503Z,73.85
2022-07-28T02:45:10.751Z,73.25
2022-07-28T02:47:48.306Z,73.58
2022-07-28T02:50:22.981Z,73.47
2022-07-28T02:52:55.736Z,72.95
2022-07-28T02:55:26.723Z,72.87
2022-07-28T02:57:58.378Z,73.22
2022-07-28T03:00:29.152Z,73.92
2022-07-28T06:20:26.130Z,75.80
2022-07-28T06:22:57.758Z,76.04
2022-07-28T06:25:30.019Z,75.27
2022-07-28T06:28:02.082Z,74.32
2022-07-28T06:30:34.149Z,72.97
2022-07-28T06:33:04.957Z,73.76
2022-07-28T06:35:43.269Z,73.08
2022-07-28T06:38:23.360Z,72.26
2022-07-28T06:40:54.057Z,70.37
2022-07-28T06:43:24.732Z,69.85
2022-07-28T06:45:55.726Z,71.08
2022-07-28T06:48:29.238Z,70.27
2022-07-28T06:51:02.216Z,71.03
2022-07-28T06:53:33.672Z,71.30
2022-07-28T06:56:06.771Z,71.20
2022-07-28T06:58:38.315Z,70.18
2022-07-28T07:01:10.254Z,72.14
2022-07-28T07:03:40.944Z,71.69
2022-07-28T07:06:13.456Z,68.73
2022-07-28T07:08:44.372Z,70.03
2022-07-28T07:11:15.197Z,70.78
2022-07-28T07:13:45.890Z,70.83
2022-07-28T07:16:16.804Z,70.17
2022-07-28T07:18:47.667Z,69.64
2022-07-28T07:21:19.045Z,69.89
2022-07-28T07:23:49.992Z,69.56
2022-07-28T07:26:20.851Z,66.55
2022-07-28T07:28:51.533Z,65.80
2022-07-28T07:31:22.125Z,67.59
2022-07-28T07:33:53.190Z,66.20
2022-07-28T07:36:24.265Z,66.97
2022-07-28T07:38:54.959Z,67.39
2022-07-28T07:41:25.659Z,67.61
2022-07-28T07:43:56.599Z,67.62
2022-07-28T07:46:27.539Z,68.03
2022-07-28T07:48:58.270Z,67.44
2022-07-28T07:51:28.997Z,65.98
2022-07-28T07:53:59.609Z,67.17
2022-07-28T07:56:30.257Z,65.74
2022-07-28T07:59:01.394Z,66.41
2022-07-28T08:01:32.044Z,65.63
2022-07-28T08:04:03.657Z,66.00
2022-07-28T08:06:34.425Z,66.33
2022-07-28T08:09:06.697Z,65.89
2022-07-28T08:11:37.379Z,66.19
2022-07-28T08:14:08.051Z,65.94
2022-07-28T08:16:39.330Z,66.51
2022-07-28T08:19:10.093Z,65.93
2022-07-28T08:21:42.951Z,65.26
2022-07-28T08:24:14.195Z,63.62
2022-07-28T08:27:02.459Z,63.63
2022-07-28T08:29:33.651Z,63.46
2022-07-28T08:32:06.797Z,64.13
2022-07-28T08:34:38.558Z,64.83
2022-07-28T08:37:09.457Z,63.07
2022-07-28T08:39:40.239Z,63.04
2022-07-28T08:42:18.479Z,62.21
2022-07-28T08:44:57.775Z,62.50
2022-07-28T08:47:40.499Z,62.06
2022-07-28T08:50:17.082Z,62.71
2022-07-28T08:52:48.972Z,63.36
2022-07-28T08:55:31.872Z,63.99
2022-07-28T08:58:03.529Z,62.52
2022-07-28T09:00:33.857Z,62.52
2022-07-28T09:03:06.514Z,63.68
2022-07-28T09:05:39.036Z,64.97
2022-07-28T09:08:10.180Z,65.00
2022-07-28T09:10:41.210Z,67.12
2022-07-28T09:13:13.342Z,66.86
2022-07-28T09:15:45.009Z,67.63
2022-07-28T09:18:17.050Z,67.34
2022-07-28T09:20:48.565Z,67.92
2022-07-28T09:23:42.132Z,68.71
2022-07-28T09:26:14.819Z,68.80
2022-07-28T09:28:59.621Z,68.96
2022-07-28T09:31:31.891Z,68.97
2022-07-28T09:34:11.395Z,68.92
2022-07-28T09:36:44.594Z,67.80
2022-07-28T09:39:31.122Z,68.44
2022-07-28T13:48:29.917Z,68.69
2022-07-28T13:51:00.666Z,68.85
2022-07-28T13:53:36.963Z,68.15
2022-07-28T13:56:11.918Z,67.99
2022-07-28T13:58:42.606Z,68.16
2022-07-28T14:01:13.528Z,67.94
2022-07-28T14:03:55.837Z,68.01
2022-07-28T14:06:28.619Z,67.78
2022-07-28T14:09:00.161Z,67.81
2022-07-28T14:11:36.478Z,67.66
2022-07-28T14:14:07.925Z,67.77
2022-07-28T14:16:44.596Z,67.31
2022-07-28T14:19:16.657Z,67.91
2022-07-28T14:21:54.306Z,68.05
2022-07-28T14:24:25.228Z,67.91
2022-07-28T14:26:56.359Z,67.63
2022-07-28T14:29:28.620Z,68.16
2022-07-28T14:32:01.844Z,68.14
2022-07-28T14:34:32.689Z,68.30
2022-07-28T14:37:09.246Z,68.13
2022-07-28T14:39:41.210Z,68.03
2022-07-28T14:42:13.085Z,68.16
2022-07-28T14:44:44.009Z,68.33
2022-07-28T14:47:15.025Z,68.25
2022-07-28T14:49:58.219Z,68.19
2022-07-28T14:52:30.587Z,68.42
2022-07-28T14:55:01.279Z,68.02
2022-07-28T14:57:48.159Z,68.20
2022-07-28T15:00:23.204Z,68.11
2022-07-28T15:02:55.568Z,68.25
2022-07-28T15:05:26.570Z,68.36
2022-07-28T15:07:57.313Z,68.60
2022-07-28T15:10:28.024Z,68.38
2022-07-28T15:12:59.376Z,68.26
2022-07-28T15:15:30.109Z,68.00
2022-07-28T15:18:01.194Z,67.99
2022-07-28T15:20:32.000Z,68.33
2022-07-28T15:23:02.904Z,68.08
2022-07-28T15:25:33.724Z,68.00
2022-07-28T15:28:04.516Z,68.22
2022-07-28T15:30:35.244Z,68.60
2022-07-28T15:33:12.100Z,68.68
2022-07-28T15:35:58.190Z,68.41
2022-07-28T15:38:32.095Z,68.59
2022-07-28T15:41:02.903Z,68.80
2022-07-28T15:43:38.781Z,68.72
2022-07-28T15:46:13.081Z,68.92
2022-07-28T15:48:45.870Z,68.83
2022-07-28T15:51:16.594Z,68.88
2022-07-28T15:53:49.509Z,69.33
2022-07-28T15:56:20.272Z,69.55
2022-07-28T15:58:51.720Z,69.80
2022-07-28T16:01:22.421Z,69.75
2022-07-28T16:03:53.474Z,70.09
2022-07-28T16:06:25.226Z,70.08
2022-07-28T16:08:56.014Z,70.33
2022-07-28T16:11:26.640Z,70.64
2022-07-28T16:13:57.484Z,70.60
2022-07-28T16:16:28.217Z,70.59
2022-07-28T16:18:59.332Z,71.05
2022-07-28T16:21:29.852Z,70.91
2022-07-28T16:24:00.655Z,71.20
2022-07-28T16:26:31.359Z,71.12
2022-07-28T16:29:02.181Z,71.08
2022-07-28T16:31:34.652Z,71.38
2022-07-28T16:34:05.500Z,71.33
2022-07-28T16:36:36.250Z,71.48
2022-07-28T16:39:08.067Z,71.57
2022-07-28T16:41:47.604Z,71.49
2022-07-28T16:44:19.371Z,71.88
2022-07-28T16:46:50.423Z,71.57
2022-07-28T16:49:21.205Z,72.14
2022-07-28T16:51:52.314Z,71.97
2022-07-28T16:54:23.119Z,72.20
2022-07-28T16:56:57.297Z,72.23
2022-07-28T16:59:37.026Z,72.22
2022-07-28T17:02:10.995Z,72.42
2022-07-28T17:04:42.105Z,72.25
2022-07-28T17:07:13.068Z,72.49
2022-07-28T17:09:43.840Z,72.69
2022-07-28T17:12:14.777Z,72.54
2022-07-28T17:14:45.506Z,72.65
2022-07-28T17:17:16.022Z,73.02
2022-07-28T17:19:48.642Z,73.32
2022-07-28T17:22:19.398Z,73.01
2022-07-28T17:24:50.998Z,73.00
2022-07-28T17:27:39.071Z,72.79
2022-07-28T17:30:11.753Z,73.03
2022-07-28T17:32:42.140Z,72.88
2022-07-28T17:35:34.458Z,73.07
2022-07-28T17:38:03.941Z,73.13
2022-07-28T17:40:34.629Z,73.10
2022-07-28T17:43:05.302Z,72.96
2022-07-28T17:45:35.973Z,73.47
2022-07-28T17:48:07.570Z,73.09
2022-07-28T17:50:38.274Z,73.08
2022-07-28T17:53:08.999Z,73.09
2022-07-28T17:56:00.758Z,73.00
2022-07-28T17:58:33.610Z,72.72
2022-07-28T18:01:10.892Z,73.05
2022-07-28T18:03:59.522Z,72.58
2022-07-28T18:06:36.919Z,72.95
2022-07-28T18:09:10.670Z,73.14
2022-07-28T18:11:56.885Z,72.81
2022-07-28T18:14:30.381Z,72.66
2022-07-28T18:17:02.144Z,72.85
2022-07-28T18:19:32.966Z,73.32
2022-07-28T18:22:03.615Z,72.98
2022-07-28T18:24:34.615Z,72.76
2022-07-28T18:27:05.334Z,72.87
2022-07-28T18:29:37.770Z,72.75
2022-07-28T18:32:10.985Z,72.79
2022-07-28T18:34:43.035Z,72.62
2022-07-28T18:37:15.473Z,73.02
2022-07-28T18:39:46.108Z,73.34
2022-07-28T18:42:16.782Z,73.04
2022-07-28T18:44:49.078Z,73.23
2022-07-28T18:47:19.762Z,72.89
2022-07-28T18:49:50.376Z,72.99
2022-07-28T18:52:21.399Z,73.27
2022-07-28T18:54:53.308Z,73.01
2022-07-28T18:57:24.399Z,72.91
2022-07-28T18:59:56.320Z,73.03
2022-07-28T19:02:27.133Z,73.13
2022-07-28T19:04:59.078Z,72.89
2022-07-28T19:07:30.245Z,73.15
2022-07-28T19:10:01.408Z,73.13
2022-07-28T19:12:34.030Z,72.98
2022-07-28T19:15:04.873Z,73.00
2022-07-28T19:17:36.674Z,73.35
2022-07-28T19:20:10.547Z,73.02
2022-07-28T19:22:42.610Z,73.21
2022-07-28T19:25:13.689Z,73.41
2022-07-28T19:27:45.094Z,72.91
2022-07-28T19:30:15.951Z,73.35
2022-07-28T19:32:46.736Z,73.54
2022-07-28T19:35:17.657Z,73.42
2022-07-28T19:37:48.311Z,73.14
2022-07-28T19:40:19.139Z,73.07
2022-07-28T19:42:51.043Z,73.40
2022-07-28T19:45:21.599Z,73.18
2022-07-28T19:47:52.268Z,73.27
2022-07-28T19:50:23.304Z,73.13
2022-07-28T19:52:53.991Z,73.86
2022-07-28T19:55:29.600Z,73.66
2022-07-28T19:58:02.321Z,73.81
2022-07-28T20:00:33.301Z,73.58
2022-07-28T20:03:04.446Z,73.83
2022-07-28T20:05:55.155Z,73.66
2022-07-28T20:08:25.709Z,73.43
2022-07-28T20:10:58.288Z,73.67
2022-07-28T20:13:28.986Z,73.57
2022-07-28T20:15:59.775Z,73.92
2022-07-28T20:18:30.414Z,73.47
2022-07-28T20:21:01.203Z,73.78
2022-07-28T20:23:32.151Z,74.03
2022-07-28T20:26:02.924Z,73.54
2022-07-28T20:28:33.621Z,74.10
2022-07-28T20:31:04.581Z,73.99
2022-07-28T20:33:35.229Z,74.04
2022-07-28T20:36:06.472Z,73.84
2022-07-28T20:38:37.099Z,74.25
2022-07-28T20:41:09.797Z,73.95
2022-07-28T20:43:40.629Z,74.00
2022-07-28T20:46:11.550Z,74.22
2022-07-28T20:48:42.455Z,74.29
2022-07-28T20:51:13.392Z,74.20
2022-07-28T20:53:44.036Z,74.31
2022-07-28T20:56:14.914Z,74.42
2022-07-28T20:58:45.756Z,74.92
2022-07-28T21:01:16.783Z,74.78
2022-07-28T21:03:52.921Z,74.77
2022-07-28T21:06:23.575Z,74.76
2022-07-28T21:08:55.149Z,74.87
2022-07-28T21:11:29.966Z,75.00
2022-07-28T21:14:06.378Z,75.16
2022-07-28T21:16:37.585Z,75.13
2022-07-28T21:19:08.448Z,75.46
2022-07-28T21:21:39.454Z,75.16
2022-07-28T21:24:10.452Z,74.96
2022-07-28T21:26:43.519Z,75.46
2022-07-28T21:32:02.283Z,74.93
2022-07-28T21:34:37.662Z,75.70
2022-07-28T21:37:09.645Z,75.58
2022-07-28T21:39:41.232Z,75.82
2022-07-28T21:42:11.957Z,75.80
2022-07-28T21:44:42.889Z,75.66
2022-07-28T21:47:13.830Z,75.62
2022-07-28T21:49:44.603Z,75.48
2022-07-28T21:52:15.223Z,75.92
2022-07-28T21:54:46.044Z,75.55
2022-07-28T21:57:24.554Z,76.04
2022-07-28T21:59:56.977Z,75.96
2022-07-28T22:02:27.616Z,75.77
2022-07-28T22:04:59.905Z,76.39
2022-07-28T22:07:30.773Z,75.83
2022-07-28T22:10:01.610Z,75.90
2022-07-28T22:12:33.302Z,76.04
2022-07-28T22:15:04.150Z,75.91
2022-07-28T22:17:34.821Z,76.35
2022-07-28T22:20:06.147Z,76.50
2022-07-28T22:22:36.675Z,76.53
2022-07-28T22:25:07.832Z,76.49
2022-07-28T22:27:38.495Z,76.55
2022-07-28T22:30:10.215Z,76.38
2022-07-28T22:32:40.967Z,76.42
2022-07-28T22:35:11.909Z,76.55
2022-07-28T22:37:42.526Z,76.73
2022-07-28T22:40:14.611Z,76.85
2022-07-28T22:42:46.897Z,77.20
2022-07-28T22:45:49.509Z,77.06
2022-07-28T22:48:08.843Z,77.06
2022-07-28T22:50:44.049Z,77.38
2022-07-28T22:53:14.741Z,77.41
2022-07-28T22:58:30.646Z,77.29
2022-07-28T23:01:01.158Z,77.59
2022-07-28T23:03:33.762Z,77.81
2022-07-28T23:06:04.420Z,77.57
2022-07-28T23:08:34.797Z,77.17
2022-07-28T23:11:05.147Z,77.50
2022-07-28T23:13:35.402Z,77.56
2022-07-28T23:16:05.775Z,77.81
2022-07-28T23:18:36.292Z,77.77
2022-07-28T23:21:07.085Z,77.37
2022-07-28T23:23:37.681Z,79.07
2022-07-28T23:26:08.256Z,79.93
2022-07-28T23:28:41.639Z,80.21
2022-07-28T23:31:11.981Z,79.77
2022-07-28T23:33:54.309Z,80.07
2022-07-28T23:36:28.208Z,79.92
2022-07-28T23:38:59.953Z,79.97
2022-07-28T23:41:31.470Z,79.79
2022-07-28T23:44:01.857Z,79.94
2022-07-28T23:46:32.231Z,80.24
2022-07-28T23:49:02.669Z,80.10
2022-07-28T23:51:47.924Z,80.35
2022-07-28T23:54:19.151Z,80.14
2022-07-28T23:56:52.948Z,80.29
2022-07-28T23:59:24.104Z,80.70
